createdAt,value
2023-02-02T00:00:15.774Z,4.10
2023-02-02T00:01:15.734Z,4.50
2023-02-02T00:02:15.756Z,4.40
2023-02-02T00:03:15.743Z,5.30
2023-02-02T00:04:15.830Z,3.60
2023-02-02T00:05:15.775Z,4.20
2023-02-02T00:06:15.721Z,4.30
2023-02-02T00:07:15.754Z,4.90
2023-02-02T00:08:15.703Z,4.80
2023-02-02T00:09:15.680Z,5.40
2023-02-02T00:10:15.679Z,4.30
2023-02-02T00:11:15.620Z,4.40
2023-02-02T00:12:15.683Z,4.70
2023-02-02T00:13:15.630Z,3.50
2023-02-02T00:14:15.629Z,3.20
2023-02-02T00:15:15.586Z,3.60
2023-02-02T00:16:15.645Z,3.80
2023-02-02T00:17:15.563Z,6.00
2023-02-02T00:18:15.592Z,5.50
2023-02-02T00:19:15.576Z,3.80
2023-02-02T00:20:15.567Z,5.10
2023-02-02T00:21:15.529Z,4.20
2023-02-02T00:22:15.540Z,3.70
2023-02-02T00:23:15.566Z,4.00
2023-02-02T00:24:15.547Z,3.30
2023-02-02T00:25:15.490Z,5.00
2023-02-02T00:26:15.511Z,3.50
2023-02-02T00:27:15.463Z,4.20
2023-02-02T00:28:15.488Z,4.10
2023-02-02T00:29:15.474Z,2.90
2023-02-02T00:30:15.480Z,2.40
2023-02-02T00:31:15.458Z,4.70
2023-02-02T00:32:15.422Z,3.20
2023-02-02T00:33:15.388Z,3.10
2023-02-02T00:34:15.433Z,4.20
2023-02-02T00:35:15.374Z,6.40
2023-02-02T00:36:15.380Z,3.30
2023-02-02T00:37:15.352Z,4.10
2023-02-02T00:38:15.371Z,2.90
2023-02-02T00:39:15.334Z,3.20
2023-02-02T00:40:15.351Z,3.40
2023-02-02T00:41:16.041Z,2.60
2023-02-02T00:42:15.386Z,2.60
2023-02-02T00:43:15.279Z,3.50
2023-02-02T00:44:15.302Z,2.50
2023-02-02T00:45:15.275Z,2.30
2023-02-02T00:46:15.299Z,3.90
2023-02-02T00:47:15.239Z,2.00
2023-02-02T00:48:15.243Z,2.30
2023-02-02T00:49:15.330Z,3.10
2023-02-02T00:50:16.132Z,3.20
2023-02-02T00:51:15.256Z,4.20
2023-02-02T00:52:15.207Z,2.80
2023-02-02T00:53:15.183Z,3.40
2023-02-02T00:54:15.182Z,3.00
2023-02-02T00:55:15.163Z,3.00
2023-02-02T00:56:15.162Z,3.10
2023-02-02T00:57:15.147Z,3.20
2023-02-02T00:58:15.159Z,2.30
2023-02-02T00:59:15.135Z,2.90
2023-02-02T01:00:15.119Z,3.30
2023-02-02T01:01:15.130Z,2.90
2023-02-02T01:02:15.114Z,2.50
2023-02-02T01:03:15.066Z,2.80
2023-02-02T01:04:15.064Z,3.70
2023-02-02T01:05:15.079Z,3.60
2023-02-02T01:06:15.869Z,5.10
2023-02-02T01:07:15.068Z,5.50
2023-02-02T01:08:15.077Z,5.70
2023-02-02T01:09:14.996Z,4.00
2023-02-02T01:10:15.034Z,4.60
2023-02-02T01:11:15.041Z,3.50
2023-02-02T01:12:14.988Z,3.90
2023-02-02T01:13:15.004Z,4.30
2023-02-02T01:14:14.954Z,3.70
2023-02-02T01:15:14.990Z,3.30
2023-02-02T01:16:14.977Z,4.90
2023-02-02T01:17:14.937Z,3.70
2023-02-02T01:18:14.936Z,3.50
2023-02-02T01:19:15.154Z,4.30
2023-02-02T01:20:14.925Z,5.30
2023-02-02T01:21:14.901Z,3.90
2023-02-02T01:22:15.094Z,4.10
2023-02-02T01:23:15.798Z,5.00
2023-02-02T01:24:15.694Z,5.30
2023-02-02T01:25:14.882Z,5.10
2023-02-02T01:26:14.839Z,5.50
2023-02-02T01:27:14.802Z,6.30
2023-02-02T01:28:14.822Z,10.60
2023-02-02T01:29:14.776Z,10.50
2023-02-02T01:30:14.808Z,7.60
2023-02-02T01:31:14.827Z,8.40
2023-02-02T01:32:36.054Z,7.40
2023-02-02T01:33:15.271Z,8.40
2023-02-02T01:34:15.515Z,11.50
2023-02-02T01:35:14.723Z,7.60
2023-02-02T01:36:14.782Z,9.50
2023-02-02T01:37:14.702Z,11.20
2023-02-02T01:38:14.701Z,13.20
2023-02-02T01:39:14.667Z,16.80
2023-02-02T01:40:14.709Z,23.80
2023-02-02T01:41:14.657Z,25.20
2023-02-02T01:42:14.714Z,27.80
2023-02-02T01:43:15.414Z,26.50
2023-02-02T01:44:15.578Z,29.90
2023-02-02T01:45:14.620Z,24.10
2023-02-02T01:46:14.674Z,24.20
2023-02-02T01:47:14.622Z,23.30
2023-02-02T01:48:14.590Z,28.50
2023-02-02T01:49:14.567Z,29.10
2023-02-02T01:50:14.569Z,30.40
2023-02-02T01:51:14.550Z,24.80
2023-02-02T01:52:14.620Z,25.40
2023-02-02T01:53:14.539Z,29.80
2023-02-02T01:54:14.551Z,30.80
2023-02-02T01:55:14.516Z,35.40
2023-02-02T01:56:14.548Z,30.20
2023-02-02T01:57:14.602Z,30.10
2023-02-02T01:58:14.502Z,28.60
2023-02-02T01:59:14.476Z,31.80
2023-02-02T02:00:14.463Z,25.60
2023-02-02T02:01:14.473Z,25.40
2023-02-02T02:02:14.511Z,21.70
2023-02-02T02:03:14.399Z,31.00
2023-02-02T02:04:14.438Z,23.80
2023-02-02T02:05:14.387Z,20.50
2023-02-02T02:06:14.475Z,28.90
2023-02-02T02:07:14.362Z,30.80
2023-02-02T02:08:14.397Z,28.80
2023-02-02T02:09:14.411Z,28.10
2023-02-02T02:10:14.367Z,27.90
2023-02-02T02:11:14.321Z,27.40
2023-02-02T02:12:14.366Z,25.70
2023-02-02T02:13:14.290Z,22.90
2023-02-02T02:14:14.333Z,25.50
2023-02-02T02:15:14.286Z,24.20
2023-02-02T02:16:14.311Z,27.40
2023-02-02T02:17:14.261Z,24.90
2023-02-02T02:18:14.299Z,30.20
2023-02-02T02:19:14.245Z,16.90
2023-02-02T02:20:14.219Z,8.90
2023-02-02T02:21:14.274Z,8.60
2023-02-02T02:22:14.203Z,10.10
2023-02-02T02:23:14.206Z,5.10
2023-02-02T02:24:14.202Z,5.90
2023-02-02T02:25:14.210Z,5.60
2023-02-02T02:26:14.147Z,5.70
2023-02-02T02:27:14.164Z,3.00
2023-02-02T02:28:14.135Z,5.00
2023-02-02T02:29:14.168Z,5.20
2023-02-02T02:30:14.107Z,3.80
2023-02-02T02:31:14.203Z,5.30
2023-02-02T02:32:14.238Z,3.20
2023-02-02T02:33:14.246Z,3.20
2023-02-02T02:34:14.259Z,4.00
2023-02-02T02:35:14.087Z,3.70
2023-02-02T02:36:14.053Z,4.30
2023-02-02T02:37:14.065Z,4.40
2023-02-02T02:38:14.028Z,4.10
2023-02-02T02:39:14.024Z,2.80
2023-02-02T02:40:13.985Z,3.20
2023-02-02T02:41:14.016Z,3.60
2023-02-02T02:42:13.977Z,3.80
2023-02-02T02:43:13.988Z,2.80
2023-02-02T02:44:13.945Z,3.60
2023-02-02T02:45:14.015Z,5.50
2023-02-02T02:46:14.749Z,4.60
2023-02-02T02:47:14.005Z,4.00
2023-02-02T02:48:13.905Z,4.30
2023-02-02T02:49:13.912Z,3.30
2023-02-02T02:50:13.882Z,3.90
2023-02-02T02:51:13.965Z,3.70
2023-02-02T02:52:13.873Z,3.20
2023-02-02T02:53:13.886Z,3.80
2023-02-02T02:54:13.852Z,2.80
2023-02-02T02:55:13.844Z,3.80
2023-02-02T02:56:13.846Z,5.30
2023-02-02T02:57:13.845Z,3.20
2023-02-02T02:58:13.785Z,5.00
2023-02-02T02:59:13.822Z,4.30
2023-02-02T03:00:13.780Z,4.00
2023-02-02T03:01:13.793Z,2.80
2023-02-02T03:02:13.767Z,5.10
2023-02-02T03:03:13.755Z,4.40
2023-02-02T03:04:13.730Z,3.80
2023-02-02T03:05:13.747Z,4.40
2023-02-02T03:06:13.739Z,4.60
2023-02-02T03:07:13.718Z,6.10
2023-02-02T03:08:13.693Z,9.70
2023-02-02T03:09:13.733Z,6.70
2023-02-02T03:10:13.661Z,9.20
2023-02-02T03:11:13.998Z,8.60
2023-02-02T03:12:13.654Z,8.80
2023-02-02T03:13:13.688Z,8.30
2023-02-02T03:14:13.621Z,12.80
2023-02-02T03:15:13.615Z,11.50
2023-02-02T03:16:13.621Z,14.90
2023-02-02T03:17:13.618Z,12.70
2023-02-02T03:18:13.570Z,12.60
2023-02-02T03:19:13.579Z,15.10
2023-02-02T03:20:13.554Z,14.80
2023-02-02T03:21:13.561Z,12.80
2023-02-02T03:22:13.534Z,16.50
2023-02-02T03:23:13.534Z,14.10
2023-02-02T03:24:13.502Z,13.60
2023-02-02T03:25:13.539Z,15.70
2023-02-02T03:26:13.480Z,15.00
2023-02-02T03:27:13.524Z,16.30
2023-02-02T03:28:13.450Z,14.70
2023-02-02T03:29:13.500Z,13.80
2023-02-02T03:30:13.450Z,11.80
2023-02-02T03:31:13.525Z,14.70
2023-02-02T03:32:13.480Z,13.30
2023-02-02T03:33:13.459Z,14.80
2023-02-02T03:34:13.415Z,13.70
2023-02-02T03:35:13.410Z,14.30
2023-02-02T03:36:13.385Z,15.00
2023-02-02T03:37:13.370Z,17.00
2023-02-02T03:38:13.388Z,15.50
2023-02-02T03:39:13.351Z,15.90
2023-02-02T03:40:13.332Z,17.90
2023-02-02T03:41:13.349Z,14.10
2023-02-02T03:42:13.311Z,18.20
2023-02-02T03:43:13.311Z,17.40
2023-02-02T03:44:13.295Z,14.50
2023-02-02T03:45:13.320Z,14.00
2023-02-02T03:46:13.551Z,15.20
2023-02-02T03:47:13.636Z,13.70
2023-02-02T03:48:13.264Z,13.20
2023-02-02T03:49:13.250Z,13.00
2023-02-02T03:50:13.240Z,14.60
2023-02-02T03:51:13.208Z,13.70
2023-02-02T03:52:13.181Z,13.10
2023-02-02T03:53:13.196Z,18.20
2023-02-02T03:54:13.206Z,15.50
2023-02-02T03:55:13.230Z,15.90
2023-02-02T03:56:13.148Z,13.70
2023-02-02T03:57:13.187Z,13.50
2023-02-02T03:58:13.108Z,17.40
2023-02-02T03:59:13.131Z,18.20
2023-02-02T04:00:13.171Z,15.80
2023-02-02T04:01:13.233Z,16.10
2023-02-02T04:02:13.141Z,17.50
2023-02-02T04:03:13.094Z,18.30
2023-02-02T04:04:13.076Z,19.00
2023-02-02T04:05:13.102Z,18.40
2023-02-02T04:06:13.027Z,17.60
2023-02-02T04:07:13.870Z,16.00
2023-02-02T04:08:12.996Z,18.50
2023-02-02T04:09:13.036Z,20.80
2023-02-02T04:10:13.027Z,18.60
2023-02-02T04:11:13.039Z,17.80
2023-02-02T04:12:12.992Z,18.70
2023-02-02T04:13:12.961Z,16.80
2023-02-02T04:14:12.956Z,21.70
2023-02-02T04:15:13.702Z,16.20
2023-02-02T04:16:13.013Z,20.70
2023-02-02T04:17:20.527Z,21.40
2023-02-02T04:18:12.914Z,22.00
2023-02-02T04:19:12.928Z,17.80
2023-02-02T04:20:12.915Z,18.90
2023-02-02T04:21:12.898Z,18.50
2023-02-02T04:22:12.873Z,21.80
2023-02-02T04:23:12.994Z,20.20
2023-02-02T04:24:12.832Z,22.40
2023-02-02T04:25:12.849Z,20.00
2023-02-02T04:26:12.814Z,23.60
2023-02-02T04:27:12.852Z,19.50
2023-02-02T04:28:12.799Z,21.70
2023-02-02T04:29:12.860Z,21.70
2023-02-02T04:30:12.780Z,25.90
2023-02-02T04:31:12.998Z,22.10
2023-02-02T04:32:12.748Z,22.90
2023-02-02T04:33:13.171Z,23.20
2023-02-02T04:34:12.713Z,20.80
2023-02-02T04:35:12.731Z,22.90
2023-02-02T04:36:12.709Z,18.90
2023-02-02T04:37:12.719Z,19.10
2023-02-02T04:38:12.681Z,22.50
2023-02-02T04:39:12.703Z,19.40
2023-02-02T04:40:12.660Z,22.40
2023-02-02T04:41:12.680Z,18.60
2023-02-02T04:42:12.710Z,23.10
2023-02-02T04:43:12.618Z,21.10
2023-02-02T04:44:12.620Z,21.40
2023-02-02T04:45:12.620Z,17.80
2023-02-02T04:46:12.659Z,21.50
2023-02-02T04:47:12.649Z,19.60
2023-02-02T04:48:12.621Z,20.10
2023-02-02T04:49:12.628Z,21.80
2023-02-02T04:50:12.556Z,23.50
2023-02-02T04:51:12.613Z,18.30
2023-02-02T04:52:12.578Z,20.90
2023-02-02T04:53:12.528Z,21.60
2023-02-02T04:54:12.500Z,19.10
2023-02-02T04:55:12.517Z,21.70
2023-02-02T04:56:12.504Z,22.60
2023-02-02T04:57:12.570Z,23.90
2023-02-02T04:58:12.620Z,21.10
2023-02-02T04:59:12.490Z,22.00
2023-02-02T05:00:12.512Z,21.60
2023-02-02T05:01:12.515Z,22.80
2023-02-02T05:02:12.486Z,23.70
2023-02-02T05:03:12.470Z,18.50
2023-02-02T05:04:12.483Z,21.10
2023-02-02T05:05:12.429Z,20.10
2023-02-02T05:06:14.713Z,18.10
2023-02-02T05:07:12.462Z,20.00
2023-02-02T05:08:12.488Z,19.80
2023-02-02T05:09:12.503Z,15.80
2023-02-02T05:10:12.310Z,13.10
2023-02-02T05:11:12.399Z,16.10
2023-02-02T05:12:12.359Z,15.90
2023-02-02T05:13:12.318Z,17.70
2023-02-02T05:14:12.306Z,20.40
2023-02-02T05:15:12.351Z,16.80
2023-02-02T05:16:12.300Z,18.50
2023-02-02T05:17:12.336Z,15.50
2023-02-02T05:18:12.312Z,16.30
2023-02-02T05:19:12.275Z,18.20
2023-02-02T05:20:12.249Z,14.80
2023-02-02T05:21:12.281Z,17.70
2023-02-02T05:22:12.220Z,14.00
2023-02-02T05:23:12.236Z,14.40
2023-02-02T05:24:12.195Z,13.40
2023-02-02T05:25:12.331Z,14.30
2023-02-02T05:26:12.251Z,14.70
2023-02-02T05:27:12.250Z,13.00
2023-02-02T05:28:12.202Z,16.40
2023-02-02T05:29:12.217Z,16.90
2023-02-02T05:30:12.132Z,16.90
2023-02-02T05:31:12.262Z,17.40
2023-02-02T05:32:12.112Z,15.60
2023-02-02T05:33:12.141Z,14.70
2023-02-02T05:34:12.051Z,15.00
2023-02-02T05:35:12.134Z,16.10
2023-02-02T05:36:12.027Z,15.40
2023-02-02T05:37:12.271Z,16.50
2023-02-02T05:38:12.107Z,16.40
2023-02-02T05:39:12.104Z,13.70
2023-02-02T05:40:12.037Z,15.40
2023-02-02T05:41:12.043Z,17.80
2023-02-02T05:42:12.032Z,15.00
2023-02-02T05:43:12.008Z,16.40
2023-02-02T05:44:12.222Z,17.30
2023-02-02T05:45:11.955Z,17.00
2023-02-02T05:46:12.022Z,15.70
2023-02-02T05:47:12.045Z,17.40
2023-02-02T05:48:11.945Z,18.10
2023-02-02T05:49:11.963Z,14.20
2023-02-02T05:50:11.904Z,14.60
2023-02-02T05:51:11.949Z,15.20
2023-02-02T05:52:11.838Z,17.20
2023-02-02T05:53:11.954Z,15.20
2023-02-02T05:54:11.850Z,14.70
2023-02-02T05:55:11.960Z,13.60
2023-02-02T05:56:11.852Z,14.60
2023-02-02T05:57:12.535Z,14.00
2023-02-02T05:58:11.882Z,16.80
2023-02-02T05:59:11.832Z,14.80
2023-02-02T06:00:11.773Z,16.30
2023-02-02T06:01:11.827Z,16.80
2023-02-02T06:02:11.819Z,16.40
2023-02-02T06:03:11.835Z,16.70
2023-02-02T06:04:11.901Z,19.00
2023-02-02T06:05:11.736Z,15.60
2023-02-02T06:06:11.706Z,15.30
2023-02-02T06:07:11.735Z,16.70
2023-02-02T06:08:11.701Z,14.30
2023-02-02T06:09:11.695Z,14.30
2023-02-02T06:10:11.724Z,16.90
2023-02-02T06:11:11.771Z,14.10
2023-02-02T06:12:14.878Z,15.70
2023-02-02T06:13:21.485Z,15.90
2023-02-02T06:14:21.488Z,15.40
2023-02-02T06:15:21.480Z,12.70
2023-02-02T06:16:21.496Z,16.20
2023-02-02T06:17:11.630Z,14.00
2023-02-02T06:18:11.581Z,16.90
2023-02-02T06:19:11.640Z,16.40
2023-02-02T06:20:11.615Z,14.00
2023-02-02T06:21:11.610Z,14.60
2023-02-02T06:22:11.551Z,16.60
2023-02-02T06:23:11.581Z,15.30
2023-02-02T06:24:11.565Z,14.40
2023-02-02T06:25:11.523Z,19.70
2023-02-02T06:26:11.510Z,18.30
2023-02-02T06:27:11.541Z,16.10
2023-02-02T06:28:11.506Z,15.80
2023-02-02T06:29:11.473Z,16.10
2023-02-02T06:30:11.504Z,19.40
2023-02-02T06:31:11.533Z,20.30
2023-02-02T06:32:11.482Z,16.00
2023-02-02T06:33:11.400Z,15.70
2023-02-02T06:34:11.432Z,16.60
2023-02-02T06:35:18.821Z,21.00
2023-02-02T06:36:11.450Z,19.60
2023-02-02T06:37:11.350Z,18.80
2023-02-02T06:38:11.494Z,18.70
2023-02-02T06:39:18.861Z,22.30
2023-02-02T06:40:11.351Z,21.80
2023-02-02T06:41:11.272Z,18.70
2023-02-02T06:42:20.875Z,22.50
2023-02-02T06:43:12.243Z,21.80
2023-02-02T06:44:11.284Z,26.80
2023-02-02T06:45:11.227Z,21.20
2023-02-02T06:46:11.284Z,26.90
2023-02-02T06:47:11.244Z,20.30
2023-02-02T06:48:11.210Z,25.50
2023-02-02T06:49:11.195Z,24.50
2023-02-02T06:50:11.743Z,23.90
2023-02-02T06:51:11.162Z,23.10
2023-02-02T06:52:11.193Z,26.10
2023-02-02T06:53:11.131Z,21.70
2023-02-02T06:54:11.152Z,28.20
2023-02-02T06:55:11.116Z,25.50
2023-02-02T06:56:11.255Z,24.30
2023-02-02T06:57:11.101Z,26.30
2023-02-02T06:58:11.132Z,26.30
2023-02-02T06:59:11.075Z,22.80
2023-02-02T07:00:11.105Z,29.20
2023-02-02T07:01:11.155Z,23.60
2023-02-02T07:02:11.099Z,25.20
2023-02-02T07:03:11.831Z,31.00
2023-02-02T07:04:11.025Z,26.20
2023-02-02T07:05:11.046Z,22.80
2023-02-02T07:06:11.040Z,22.20
2023-02-02T07:07:11.004Z,21.30
2023-02-02T07:08:11.002Z,24.50
2023-02-02T07:09:10.996Z,27.40
2023-02-02T07:11:14.237Z,26.80
2023-02-02T07:11:15.779Z,19.60
2023-02-02T07:12:11.044Z,22.90
2023-02-02T07:13:10.902Z,25.80
2023-02-02T07:14:10.920Z,27.90
2023-02-02T07:15:10.871Z,26.00
2023-02-02T07:16:10.908Z,20.80
2023-02-02T07:17:10.861Z,18.70
2023-02-02T07:18:10.884Z,22.90
2023-02-02T07:19:10.876Z,21.70
2023-02-02T07:20:10.852Z,23.70
2023-02-02T07:21:10.819Z,22.80
2023-02-02T07:22:10.885Z,20.00
2023-02-02T07:23:10.802Z,17.70
2023-02-02T07:24:10.889Z,17.50
2023-02-02T07:25:10.760Z,21.90
2023-02-02T07:26:10.794Z,16.30
2023-02-02T07:27:10.758Z,21.30
2023-02-02T07:28:11.431Z,20.70
2023-02-02T07:29:10.744Z,16.80
2023-02-02T07:30:10.752Z,19.90
2023-02-02T07:31:10.987Z,19.90
2023-02-02T07:32:10.709Z,22.30
2023-02-02T07:33:10.681Z,19.90
2023-02-02T07:34:10.710Z,18.00
2023-02-02T07:35:10.802Z,24.60
2023-02-02T07:36:10.657Z,21.90
2023-02-02T07:37:10.620Z,22.70
2023-02-02T07:38:10.914Z,22.30
2023-02-02T07:39:10.822Z,23.60
2023-02-02T07:40:10.683Z,25.90
2023-02-02T07:41:11.072Z,18.80
2023-02-02T07:42:10.601Z,24.20
2023-02-02T07:43:10.551Z,22.60
2023-02-02T07:44:10.646Z,20.90
2023-02-02T07:45:27.086Z,19.00
2023-02-02T07:46:11.602Z,25.40
2023-02-02T07:47:10.504Z,19.40
2023-02-02T07:48:10.568Z,21.50
2023-02-02T07:49:10.527Z,22.40
2023-02-02T07:50:10.660Z,18.80
2023-02-02T07:51:10.519Z,18.60
2023-02-02T07:52:10.523Z,19.60
2023-02-02T07:53:10.528Z,18.50
2023-02-02T07:54:10.458Z,21.40
2023-02-02T07:55:14.737Z,18.50
2023-02-02T07:56:10.550Z,17.90
2023-02-02T07:57:10.428Z,18.40
2023-02-02T07:58:10.397Z,13.90
2023-02-02T07:59:10.368Z,18.20
2023-02-02T08:00:10.387Z,17.10
2023-02-02T08:01:10.504Z,18.70
2023-02-02T08:02:10.379Z,18.70
2023-02-02T08:03:10.363Z,16.60
2023-02-02T08:04:10.357Z,19.70
2023-02-02T08:05:10.307Z,20.90
2023-02-02T08:06:10.307Z,19.60
2023-02-02T08:07:10.327Z,20.00
2023-02-02T08:08:10.295Z,20.60
2023-02-02T08:09:10.293Z,16.70
2023-02-02T08:10:10.266Z,20.20
2023-02-02T08:11:10.231Z,23.60
2023-02-02T08:12:10.268Z,19.10
2023-02-02T08:13:10.209Z,23.60
2023-02-02T08:14:10.230Z,19.90
2023-02-02T08:15:20.512Z,21.90
2023-02-02T08:16:10.235Z,21.80
2023-02-02T08:17:10.196Z,24.20
2023-02-02T08:18:11.031Z,20.60
2023-02-02T08:19:10.690Z,22.50
2023-02-02T08:20:11.079Z,20.10
2023-02-02T08:21:10.158Z,22.70
2023-02-02T08:22:10.142Z,21.00
2023-02-02T08:23:10.088Z,23.10
2023-02-02T08:24:10.099Z,24.00
2023-02-02T08:25:10.851Z,22.20
2023-02-02T08:26:10.075Z,21.70
2023-02-02T08:27:10.051Z,20.40
2023-02-02T08:28:10.049Z,21.70
2023-02-02T08:29:10.028Z,19.30
2023-02-02T08:30:10.049Z,20.90
2023-02-02T08:31:10.088Z,23.00
2023-02-02T08:32:10.035Z,19.20
2023-02-02T08:33:09.996Z,22.10
2023-02-02T08:34:09.987Z,19.40
2023-02-02T08:35:09.957Z,18.70
2023-02-02T08:36:09.986Z,20.60
2023-02-02T08:37:09.927Z,21.40
2023-02-02T08:38:09.945Z,18.80
2023-02-02T08:39:09.904Z,18.10
2023-02-02T08:40:10.026Z,17.60
2023-02-02T08:41:09.974Z,17.90
2023-02-02T08:42:09.931Z,23.70
2023-02-02T08:43:09.862Z,21.40
2023-02-02T08:44:11.461Z,15.10
2023-02-02T08:46:04.204Z,17.60
2023-02-02T08:46:10.946Z,19.40
2023-02-02T08:47:09.890Z,14.40
2023-02-02T08:48:12.327Z,18.60
2023-02-02T08:49:09.785Z,18.40
2023-02-02T08:50:10.516Z,16.20
2023-02-02T08:51:09.786Z,13.90
2023-02-02T08:52:09.798Z,17.00
2023-02-02T08:53:10.483Z,18.10
2023-02-02T08:54:09.796Z,15.30
2023-02-02T08:55:09.724Z,18.70
2023-02-02T08:56:09.782Z,16.70
2023-02-02T08:57:09.723Z,20.10
2023-02-02T08:58:09.722Z,18.10
2023-02-02T08:59:09.683Z,19.00
2023-02-02T09:00:10.586Z,18.20
2023-02-02T09:01:10.581Z,16.60
2023-02-02T09:02:10.423Z,19.20
2023-02-02T09:03:10.560Z,18.50
2023-02-02T09:04:09.663Z,17.10
2023-02-02T09:05:09.613Z,17.80
2023-02-02T09:06:09.650Z,17.20
2023-02-02T09:07:09.592Z,16.80
2023-02-02T09:08:09.738Z,20.90
2023-02-02T09:09:10.007Z,19.10
2023-02-02T09:10:09.583Z,17.80
2023-02-02T09:11:09.552Z,18.00
2023-02-02T09:12:09.593Z,21.30
2023-02-02T09:13:10.133Z,15.50
2023-02-02T09:14:09.547Z,16.50
2023-02-02T09:15:10.423Z,16.40
2023-02-02T09:16:09.582Z,17.70
2023-02-02T09:17:09.652Z,14.30
2023-02-02T09:18:09.508Z,13.30
2023-02-02T09:19:09.442Z,14.70
2023-02-02T09:20:09.463Z,11.50
2023-02-02T09:21:10.353Z,12.30
2023-02-02T09:22:10.245Z,13.50
2023-02-02T09:23:09.429Z,12.30
2023-02-02T09:24:09.413Z,13.50
2023-02-02T09:25:09.572Z,12.60
2023-02-02T09:26:10.130Z,11.90
2023-02-02T09:27:09.376Z,12.80
2023-02-02T09:28:09.375Z,12.00
2023-02-02T09:29:09.346Z,11.40
2023-02-02T09:30:09.382Z,10.90
2023-02-02T09:31:09.359Z,13.60
2023-02-02T09:32:09.405Z,13.10
2023-02-02T09:33:09.300Z,11.70
2023-02-02T09:34:09.878Z,11.30
2023-02-02T09:35:09.288Z,10.50
2023-02-02T09:36:09.577Z,10.20
2023-02-02T09:37:09.253Z,10.50
2023-02-02T09:38:09.268Z,12.00
2023-02-02T09:39:09.231Z,10.50
2023-02-02T09:40:10.069Z,10.60
2023-02-02T09:41:09.229Z,9.40
2023-02-02T09:42:09.303Z,8.50
2023-02-02T09:43:09.212Z,10.90
2023-02-02T09:44:09.197Z,10.20
2023-02-02T09:45:09.329Z,13.20
2023-02-02T09:46:09.185Z,12.90
2023-02-02T09:47:09.131Z,12.70
2023-02-02T09:48:09.161Z,11.30
2023-02-02T09:49:09.119Z,10.20
2023-02-02T09:50:09.156Z,9.40
2023-02-02T09:51:09.095Z,8.00
2023-02-02T09:52:09.119Z,8.90
2023-02-02T09:53:09.100Z,9.50
2023-02-02T09:54:09.100Z,9.40
2023-02-02T09:55:09.289Z,11.00
2023-02-02T09:56:09.062Z,8.00
2023-02-02T09:57:09.031Z,7.30
2023-02-02T09:58:09.061Z,8.40
2023-02-02T09:59:19.206Z,7.50
2023-02-02T10:00:10.019Z,8.20
2023-02-02T10:01:09.001Z,8.90
2023-02-02T10:02:09.747Z,9.80
2023-02-02T10:03:08.979Z,8.70
2023-02-02T10:04:09.022Z,8.20
2023-02-02T10:05:09.251Z,11.20
2023-02-02T10:06:08.952Z,8.60
2023-02-02T10:07:08.907Z,10.80
2023-02-02T10:08:08.933Z,7.50
2023-02-02T10:09:08.892Z,8.80
2023-02-02T10:10:08.942Z,7.60
2023-02-02T10:11:08.889Z,8.50
2023-02-02T10:12:09.653Z,8.70
2023-02-02T10:13:08.839Z,9.60
2023-02-02T10:14:09.124Z,7.90
2023-02-02T10:15:08.953Z,7.70
2023-02-02T10:16:08.911Z,8.10
2023-02-02T10:17:08.799Z,8.40
2023-02-02T10:18:08.819Z,10.20
2023-02-02T10:19:08.781Z,8.50
2023-02-02T10:20:08.837Z,8.20
2023-02-02T10:21:08.767Z,11.80
2023-02-02T10:22:09.268Z,9.30
2023-02-02T10:23:08.748Z,9.80
2023-02-02T10:24:08.769Z,10.40
2023-02-02T10:25:08.701Z,8.70
2023-02-02T10:26:08.745Z,10.50
2023-02-02T10:27:08.762Z,10.30
2023-02-02T10:28:08.716Z,10.40
2023-02-02T10:29:08.676Z,11.90
2023-02-02T10:30:08.700Z,9.30
2023-02-02T10:31:08.726Z,11.90
2023-02-02T10:32:08.735Z,11.60
2023-02-02T10:33:08.625Z,10.50
2023-02-02T10:34:08.635Z,10.00
2023-02-02T10:35:14.033Z,11.70
2023-02-02T10:36:09.616Z,12.30
2023-02-02T10:37:08.590Z,11.70
2023-02-02T10:38:08.604Z,11.10
2023-02-02T10:39:08.555Z,9.90
2023-02-02T10:40:08.602Z,9.80
2023-02-02T10:41:08.535Z,11.20
2023-02-02T10:42:08.556Z,9.00
2023-02-02T10:43:08.527Z,8.30
2023-02-02T10:44:08.540Z,12.20
2023-02-02T10:45:08.536Z,8.60
2023-02-02T10:46:08.500Z,7.80
2023-02-02T10:47:08.485Z,9.30
2023-02-02T10:48:08.499Z,8.70
2023-02-02T10:49:08.497Z,6.50
2023-02-02T10:50:08.428Z,7.20
2023-02-02T10:51:08.445Z,8.10
2023-02-02T10:52:08.432Z,7.00
2023-02-02T10:53:08.424Z,9.40
2023-02-02T10:54:08.394Z,9.10
2023-02-02T10:55:08.403Z,6.00
2023-02-02T10:56:08.466Z,6.40
2023-02-02T10:57:08.366Z,7.30
2023-02-02T10:58:08.350Z,6.80
2023-02-02T10:59:08.418Z,7.80
2023-02-02T11:00:08.316Z,6.50
2023-02-02T11:01:08.462Z,7.10
2023-02-02T11:02:19.948Z,6.50
2023-02-02T11:03:09.381Z,5.40
2023-02-02T11:04:08.836Z,6.70
2023-02-02T11:05:08.535Z,5.80
2023-02-02T11:06:08.261Z,6.20
2023-02-02T11:07:08.284Z,5.40
2023-02-02T11:08:08.233Z,5.50
2023-02-02T11:09:08.253Z,6.10
2023-02-02T11:10:08.233Z,6.20
2023-02-02T11:11:08.231Z,6.20
2023-02-02T11:12:08.205Z,9.70
2023-02-02T11:13:08.194Z,8.00
2023-02-02T11:14:08.172Z,7.40
2023-02-02T11:15:08.176Z,7.80
2023-02-02T11:16:08.195Z,9.90
2023-02-02T11:17:08.152Z,8.40
2023-02-02T11:18:08.123Z,7.80
2023-02-02T11:19:08.152Z,8.30
2023-02-02T11:20:08.892Z,7.90
2023-02-02T11:21:08.132Z,7.10
2023-02-02T11:22:08.092Z,7.30
2023-02-02T11:23:08.092Z,8.00
2023-02-02T11:24:08.051Z,7.80
2023-02-02T11:25:08.075Z,9.30
2023-02-02T11:26:08.059Z,10.60
2023-02-02T11:27:08.755Z,10.40
2023-02-02T11:28:08.021Z,8.90
2023-02-02T11:29:08.022Z,10.30
2023-02-02T11:30:08.005Z,12.00
2023-02-02T11:31:08.080Z,11.10
2023-02-02T11:32:07.970Z,10.00
2023-02-02T11:33:07.995Z,10.60
2023-02-02T11:34:07.962Z,10.50
2023-02-02T11:35:07.955Z,13.20
2023-02-02T11:36:08.154Z,11.40
2023-02-02T11:37:08.862Z,12.60
2023-02-02T11:38:07.936Z,11.90
2023-02-02T11:39:07.911Z,9.50
2023-02-02T11:40:07.873Z,10.10
2023-02-02T11:41:07.909Z,11.00
2023-02-02T11:42:07.862Z,14.00
2023-02-02T11:43:07.873Z,8.90
2023-02-02T11:44:07.847Z,12.50
2023-02-02T11:45:08.560Z,12.70
2023-02-02T11:46:07.920Z,17.70
2023-02-02T11:47:07.824Z,12.60
2023-02-02T11:48:07.791Z,11.20
2023-02-02T11:49:07.791Z,12.60
2023-02-02T11:50:07.759Z,12.70
2023-02-02T11:51:07.829Z,12.40
2023-02-02T11:52:07.818Z,14.10
2023-02-02T11:53:07.780Z,14.10
2023-02-02T11:54:07.992Z,15.90
2023-02-02T11:55:07.731Z,15.60
2023-02-02T11:56:07.703Z,14.60
2023-02-02T11:57:07.780Z,15.00
2023-02-02T11:58:07.680Z,15.20
2023-02-02T11:59:07.698Z,15.50
2023-02-02T12:00:07.651Z,15.30
2023-02-02T12:01:07.661Z,14.10
2023-02-02T12:02:07.682Z,17.00
2023-02-02T12:03:07.639Z,14.40
2023-02-02T12:04:07.714Z,14.10
2023-02-02T12:05:08.415Z,12.80
2023-02-02T12:06:07.601Z,14.50
2023-02-02T12:07:07.596Z,13.00
2023-02-02T12:08:07.568Z,12.80
2023-02-02T12:09:07.577Z,16.30
2023-02-02T12:10:07.544Z,14.70
2023-02-02T12:11:07.588Z,16.40
2023-02-02T12:12:07.529Z,19.10
2023-02-02T12:13:07.529Z,17.00
2023-02-02T12:14:07.550Z,19.20
2023-02-02T12:15:07.514Z,18.20
2023-02-02T12:16:09.069Z,22.50
2023-02-02T12:17:08.311Z,20.30
2023-02-02T12:18:08.059Z,20.50
2023-02-02T12:19:07.479Z,20.70
2023-02-02T12:20:07.539Z,19.70
2023-02-02T12:21:07.461Z,22.90
2023-02-02T12:22:07.987Z,26.20
2023-02-02T12:23:07.425Z,20.90
2023-02-02T12:24:07.412Z,22.70
2023-02-02T12:25:07.434Z,23.90
2023-02-02T12:26:07.373Z,20.90
2023-02-02T12:27:07.380Z,22.30
2023-02-02T12:28:07.338Z,22.00
2023-02-02T12:29:07.351Z,22.10
2023-02-02T12:30:07.329Z,23.30
2023-02-02T12:31:07.374Z,23.00
2023-02-02T12:32:07.375Z,21.80
2023-02-02T12:33:07.307Z,25.80
2023-02-02T12:34:07.351Z,24.30
2023-02-02T12:35:07.329Z,22.70
2023-02-02T12:36:07.285Z,23.70
2023-02-02T12:37:07.264Z,26.20
2023-02-02T12:38:08.100Z,21.50
2023-02-02T12:39:07.240Z,21.70
2023-02-02T12:40:07.199Z,23.10
2023-02-02T12:41:07.226Z,20.90
2023-02-02T12:42:07.204Z,22.80
2023-02-02T12:43:07.205Z,24.00
2023-02-02T12:44:07.156Z,25.30
2023-02-02T12:45:07.176Z,22.70
2023-02-02T12:46:07.196Z,23.10
2023-02-02T12:47:07.148Z,23.40
2023-02-02T12:48:07.169Z,25.50
2023-02-02T12:49:07.178Z,29.30
2023-02-02T12:50:07.158Z,24.90
2023-02-02T12:51:07.116Z,28.20
2023-02-02T12:52:07.088Z,27.60
2023-02-02T12:53:07.098Z,20.60
2023-02-02T12:54:33.233Z,28.90
2023-02-02T12:55:08.060Z,25.00
2023-02-02T12:56:07.018Z,21.60
2023-02-02T12:57:07.067Z,26.10
2023-02-02T12:58:07.939Z,26.20
2023-02-02T12:59:07.381Z,26.90
2023-02-02T13:00:07.001Z,26.30